createdAt,value
2018-03-19T00:00:54.687Z,-0.67
2018-03-19T00:03:22.142Z,-0.65
2018-03-19T00:05:49.624Z,-0.64
2018-03-19T00:08:17.094Z,-0.60
2018-03-19T00:10:44.634Z,-0.63
2018-03-19T00:13:12.089Z,-0.64
2018-03-19T00:15:39.571Z,-0.64
2018-03-19T00:18:07.039Z,-0.63
2018-03-19T00:20:34.507Z,-0.61
2018-03-19T00:23:02.000Z,-0.59
2018-03-19T00:25:29.480Z,-0.63
2018-03-19T00:27:56.976Z,-0.62
2018-03-19T00:30:24.442Z,-0.62
2018-03-19T00:32:51.926Z,-0.56
2018-03-19T00:35:19.384Z,-0.56
2018-03-19T00:37:46.871Z,-0.60
2018-03-19T00:40:14.328Z,-0.68
2018-03-19T00:42:41.807Z,-0.79
2018-03-19T00:45:09.336Z,-0.86
2018-03-19T00:47:36.822Z,-0.89
2018-03-19T00:50:04.274Z,-0.97
2018-03-19T00:52:31.732Z,-1.05
2018-03-19T00:54:59.242Z,-1.14
2018-03-19T00:57:26.712Z,-1.12
2018-03-19T00:59:54.199Z,-1.17
2018-03-19T01:02:21.660Z,-1.20
2018-03-19T01:04:49.138Z,-1.23
2018-03-19T01:07:16.595Z,-1.31
2018-03-19T01:09:44.102Z,-1.42
2018-03-19T01:12:11.569Z,-1.44
2018-03-19T01:14:39.043Z,-1.47
2018-03-19T01:17:06.527Z,-1.51
2018-03-19T01:19:34.015Z,-1.51
2018-03-19T01:22:01.468Z,-1.47
2018-03-19T01:24:28.955Z,-1.48
2018-03-19T01:26:56.411Z,-1.48
2018-03-19T01:29:23.904Z,-1.44
2018-03-19T01:31:51.363Z,-1.40
2018-03-19T01:34:18.814Z,-1.32
2018-03-19T01:36:46.290Z,-1.20
2018-03-19T01:39:13.764Z,-1.19
2018-03-19T01:41:41.256Z,-1.14
2018-03-19T01:44:08.706Z,-1.12
2018-03-19T01:46:36.211Z,-1.01
2018-03-19T01:49:03.659Z,-1.04
2018-03-19T01:51:31.138Z,-1.05
2018-03-19T01:53:58.600Z,-1.13
2018-03-19T01:56:26.091Z,-1.04
2018-03-19T01:58:53.553Z,-0.96
2018-03-19T02:01:21.041Z,-0.94
2018-03-19T02:03:48.495Z,-0.99
2018-03-19T02:06:15.983Z,-1.07
2018-03-19T02:08:43.452Z,-1.04
2018-03-19T02:11:10.925Z,-1.02
2018-03-19T02:13:38.371Z,-1.03
2018-03-19T02:16:05.864Z,-1.02
2018-03-19T02:18:33.339Z,-1.06
2018-03-19T02:21:00.832Z,-0.97
2018-03-19T02:23:28.294Z,-0.97
2018-03-19T02:25:55.755Z,-1.02
2018-03-19T02:28:23.235Z,-1.04
2018-03-19T02:30:50.691Z,-1.01
2018-03-19T02:33:18.168Z,-0.94
2018-03-19T02:35:45.631Z,-1.00
2018-03-19T02:38:13.129Z,-0.96
2018-03-19T02:40:40.589Z,-0.99
2018-03-19T02:43:08.067Z,-0.99
2018-03-19T02:45:35.532Z,-1.06
2018-03-19T02:48:03.035Z,-1.02
2018-03-19T02:50:30.505Z,-1.03
2018-03-19T02:52:57.988Z,-1.14
2018-03-19T02:55:25.443Z,-1.14
2018-03-19T02:57:52.924Z,-1.10
2018-03-19T03:00:20.400Z,-1.15
2018-03-19T03:02:47.915Z,-1.13
2018-03-19T03:05:15.372Z,-1.19
2018-03-19T03:07:42.844Z,-1.18
2018-03-19T03:10:10.331Z,-1.21
2018-03-19T03:12:37.787Z,-1.24
2018-03-19T03:15:05.274Z,-1.30
2018-03-19T03:17:32.732Z,-1.32
2018-03-19T03:20:13.579Z,-1.42
2018-03-19T03:22:41.026Z,-1.49
2018-03-19T03:25:08.560Z,-1.45
2018-03-19T03:27:35.982Z,-1.44
2018-03-19T03:30:03.462Z,-1.36
2018-03-19T03:32:30.920Z,-1.42
2018-03-19T03:34:58.408Z,-1.41
2018-03-19T03:37:25.866Z,-1.34
2018-03-19T03:39:53.352Z,-1.27
2018-03-19T03:42:20.855Z,-1.32
2018-03-19T03:44:48.351Z,-1.31
2018-03-19T03:47:15.808Z,-1.37
2018-03-19T03:49:43.271Z,-1.27
2018-03-19T03:52:10.754Z,-1.20
2018-03-19T03:54:38.208Z,-1.19
2018-03-19T03:57:05.716Z,-1.21
2018-03-19T03:59:33.172Z,-1.18
2018-03-19T04:02:00.665Z,-1.18
2018-03-19T04:04:28.131Z,-1.29
2018-03-19T04:06:55.608Z,-1.30
2018-03-19T04:09:23.072Z,-1.38
2018-03-19T04:11:50.554Z,-1.35
2018-03-19T04:14:18.006Z,-1.40
2018-03-19T04:16:45.512Z,-1.41
2018-03-19T04:19:12.967Z,-1.34
2018-03-19T04:21:40.454Z,-1.40
2018-03-19T04:24:07.911Z,-1.34
2018-03-19T04:26:35.392Z,-1.31
2018-03-19T04:29:02.855Z,-1.37
2018-03-19T04:31:30.364Z,-1.31
2018-03-19T04:33:57.830Z,-1.42
2018-03-19T04:36:25.342Z,-1.38
2018-03-19T04:38:52.799Z,-1.38
2018-03-19T04:41:20.264Z,-1.44
2018-03-19T04:43:47.753Z,-1.48
2018-03-19T04:46:15.214Z,-1.51
2018-03-19T04:48:42.717Z,-1.40
2018-03-19T04:51:10.182Z,-1.39
2018-03-19T04:53:37.675Z,-1.47
2018-03-19T04:56:05.133Z,-1.41
2018-03-19T04:58:32.624Z,-1.50
2018-03-19T05:01:00.096Z,-1.50
2018-03-19T05:03:27.612Z,-1.41
2018-03-19T05:05:55.067Z,-1.44
2018-03-19T05:08:22.575Z,-1.51
2018-03-19T05:10:50.037Z,-1.43
2018-03-19T05:13:17.517Z,-1.41
2018-03-19T05:15:44.971Z,-1.44
2018-03-19T05:18:12.460Z,-1.44
2018-03-19T05:20:39.939Z,-1.49
2018-03-19T05:23:07.432Z,-1.43
2018-03-19T05:25:34.891Z,-1.44
2018-03-19T05:28:02.414Z,-1.40
2018-03-19T05:30:29.869Z,-1.59
2018-03-19T05:32:57.330Z,-1.56
2018-03-19T05:35:24.816Z,-1.53
2018-03-19T05:37:52.273Z,-1.50
2018-03-19T05:40:19.763Z,-1.45
2018-03-19T05:42:47.228Z,-1.55
2018-03-19T05:45:14.726Z,-1.63
2018-03-19T05:47:42.188Z,-1.59
2018-03-19T05:50:09.671Z,-1.62
2018-03-19T05:52:37.133Z,-1.55
2018-03-19T05:55:04.628Z,-1.65
2018-03-19T05:57:32.089Z,-1.51
2018-03-19T05:59:59.586Z,-1.56
2018-03-19T06:02:27.063Z,-1.56
2018-03-19T06:04:54.548Z,-1.53
2018-03-19T06:07:22.007Z,-1.61
2018-03-19T06:09:49.491Z,-1.53
2018-03-19T06:12:16.950Z,-1.56
2018-03-19T06:14:44.439Z,-1.58
2018-03-19T06:17:11.904Z,-1.47
2018-03-19T06:19:39.392Z,-1.54
2018-03-19T06:22:06.852Z,-1.51
2018-03-19T06:24:34.343Z,-1.50
2018-03-19T06:27:01.808Z,-1.59
2018-03-19T06:29:29.260Z,-1.50
2018-03-19T06:31:56.764Z,-1.54
2018-03-19T06:34:24.231Z,-1.52
2018-03-19T06:36:51.731Z,-1.50
2018-03-19T06:39:19.191Z,-1.47
2018-03-19T06:41:46.676Z,-1.38
2018-03-19T06:44:14.135Z,-1.50
2018-03-19T06:46:41.619Z,-1.49
2018-03-19T06:49:09.181Z,-1.52
2018-03-19T06:51:36.737Z,-1.39
2018-03-19T06:54:04.195Z,-1.29
2018-03-19T06:56:31.695Z,-1.26
2018-03-19T06:58:59.158Z,-1.29
2018-03-19T07:01:26.660Z,-1.12
2018-03-19T07:03:54.139Z,-1.16
2018-03-19T07:06:21.645Z,-1.30
2018-03-19T07:08:49.108Z,-1.10
2018-03-19T07:11:16.568Z,-1.16
2018-03-19T07:13:44.054Z,-1.03
2018-03-19T07:16:12.281Z,-1.06
2018-03-19T07:18:39.764Z,-0.95
2018-03-19T07:21:07.227Z,-0.88
2018-03-19T07:23:34.719Z,-0.80
2018-03-19T07:26:02.196Z,-0.72
2018-03-19T07:28:29.691Z,-0.62
2018-03-19T07:30:57.151Z,-0.56
2018-03-19T07:33:24.650Z,-0.75
2018-03-19T07:35:52.120Z,-0.64
2018-03-19T07:38:19.585Z,-0.54
2018-03-19T07:40:47.072Z,-0.71
2018-03-19T07:43:14.531Z,-0.66
2018-03-19T07:45:42.022Z,-0.61
2018-03-19T07:48:09.487Z,-0.51
2018-03-19T07:50:36.984Z,-0.20
2018-03-19T07:53:04.451Z,-0.09
2018-03-19T07:55:31.974Z,0.00
2018-03-19T07:57:59.436Z,-0.13
2018-03-19T08:00:26.919Z,-0.09
2018-03-19T08:02:54.380Z,0.09
2018-03-19T08:05:21.973Z,0.03
2018-03-19T08:07:49.360Z,-0.04
2018-03-19T08:10:16.847Z,-0.14
2018-03-19T08:12:44.324Z,-0.05
2018-03-19T08:15:11.808Z,-0.06
2018-03-19T08:17:39.258Z,0.14
2018-03-19T08:20:06.743Z,0.16
2018-03-19T08:22:34.202Z,0.33
2018-03-19T08:25:01.655Z,0.41
2018-03-19T08:27:29.158Z,0.25
2018-03-19T08:29:56.615Z,0.39
2018-03-19T08:32:24.099Z,0.60
2018-03-19T08:34:51.556Z,0.51
2018-03-19T08:37:19.042Z,0.86
2018-03-19T08:39:46.545Z,0.91
2018-03-19T08:42:13.987Z,0.99
2018-03-19T08:44:41.455Z,1.29
2018-03-19T08:47:08.931Z,0.91
2018-03-19T08:49:36.394Z,1.25
2018-03-19T08:52:03.876Z,1.06
2018-03-19T08:54:31.335Z,1.20
2018-03-19T08:56:58.811Z,1.08
2018-03-19T08:59:26.293Z,1.43
2018-03-19T09:01:53.815Z,1.42
2018-03-19T09:04:21.315Z,1.07
2018-03-19T09:06:48.791Z,1.25
2018-03-19T09:09:16.277Z,1.43
2018-03-19T09:11:43.743Z,1.68
2018-03-19T09:14:11.224Z,1.37
2018-03-19T09:16:38.674Z,1.26
2018-03-19T09:19:06.165Z,1.26
2018-03-19T09:21:33.623Z,1.71
2018-03-19T09:24:01.183Z,1.87
2018-03-19T09:26:28.709Z,2.11
2018-03-19T09:28:56.191Z,2.27
2018-03-19T09:31:23.647Z,1.64
2018-03-19T09:33:51.128Z,1.98
2018-03-19T09:36:18.587Z,2.17
2018-03-19T09:38:46.091Z,2.47
2018-03-19T09:41:13.864Z,2.45
2018-03-19T09:43:41.352Z,2.20
2018-03-19T09:46:08.852Z,2.47
2018-03-19T09:48:40.221Z,2.43
2018-03-19T09:51:17.987Z,2.58
2018-03-19T09:56:21.645Z,1.97
2018-03-19T09:58:49.099Z,1.83
2018-03-19T10:01:16.599Z,1.84
2018-03-19T10:03:44.068Z,2.07
2018-03-19T10:06:11.555Z,1.90
2018-03-19T10:08:39.007Z,1.70
2018-03-19T10:11:06.504Z,1.72
2018-03-19T10:13:33.959Z,1.50
2018-03-19T10:16:01.448Z,1.54
2018-03-19T10:18:28.907Z,1.66
2018-03-19T10:20:56.363Z,1.52
2018-03-19T10:23:23.855Z,1.46
2018-03-19T10:25:51.323Z,1.73
2018-03-19T10:28:18.807Z,1.74
2018-03-19T10:30:46.262Z,1.48
2018-03-19T10:33:13.752Z,1.65
2018-03-19T10:35:41.212Z,1.73
2018-03-19T10:38:08.705Z,1.65
2018-03-19T10:40:36.159Z,1.67
2018-03-19T10:43:03.674Z,1.98
2018-03-19T10:45:31.128Z,1.98
2018-03-19T10:47:58.620Z,2.04
2018-03-19T10:50:26.076Z,2.03
2018-03-19T10:52:53.565Z,2.13
2018-03-19T10:55:21.038Z,2.45
2018-03-19T10:57:48.524Z,2.54
2018-03-19T11:00:15.978Z,2.64
2018-03-19T11:02:49.008Z,2.63
2018-03-19T11:05:22.005Z,2.93
2018-03-19T11:07:55.082Z,2.73
2018-03-19T11:10:22.563Z,2.78
2018-03-19T11:12:50.056Z,2.72
2018-03-19T11:15:17.510Z,2.88
2018-03-19T11:17:45.000Z,2.84
2018-03-19T11:20:12.486Z,2.31
2018-03-19T11:22:39.970Z,2.39
2018-03-19T11:25:07.419Z,2.80
2018-03-19T11:27:34.908Z,2.75
2018-03-19T11:30:02.368Z,2.72
2018-03-19T11:32:29.864Z,3.08
2018-03-19T11:34:57.347Z,3.34
2018-03-19T11:37:24.833Z,3.11
2018-03-19T11:39:52.311Z,3.28
2018-03-19T11:42:19.770Z,3.63
2018-03-19T11:44:47.256Z,3.82
2018-03-19T11:47:15.688Z,3.47
2018-03-19T11:49:43.182Z,3.57
2018-03-19T11:52:10.644Z,3.75
2018-03-19T11:54:38.123Z,3.63
2018-03-19T11:57:05.579Z,3.72
2018-03-19T11:59:33.072Z,3.74
2018-03-19T12:02:00.536Z,3.43
2018-03-19T12:04:28.019Z,3.38
2018-03-19T12:06:55.472Z,3.63
2018-03-19T12:09:22.996Z,3.91
2018-03-19T12:11:50.459Z,3.90
2018-03-19T12:14:17.919Z,3.96
2018-03-19T12:16:45.418Z,4.37
2018-03-19T12:19:12.874Z,3.56
2018-03-19T12:21:40.351Z,3.69
2018-03-19T12:24:08.163Z,4.15
2018-03-19T12:26:35.644Z,4.43
2018-03-19T12:29:03.099Z,4.31
2018-03-19T12:31:30.594Z,4.83
2018-03-19T12:33:58.047Z,5.14
2018-03-19T12:36:25.587Z,5.51
2018-03-19T12:38:52.995Z,5.50
2018-03-19T12:41:20.477Z,5.76
2018-03-19T12:43:47.927Z,5.36
2018-03-19T12:46:15.403Z,5.49
2018-03-19T12:48:42.873Z,5.21
2018-03-19T12:51:10.393Z,5.06
2018-03-19T12:53:37.853Z,5.41
2018-03-19T12:56:05.350Z,5.77
2018-03-19T12:58:32.812Z,5.27
2018-03-19T13:01:00.304Z,4.97
2018-03-19T13:03:27.766Z,5.32
2018-03-19T13:05:55.224Z,5.34
2018-03-19T13:08:22.702Z,5.98
2018-03-19T13:10:50.180Z,6.35
2018-03-19T13:13:17.660Z,6.82
2018-03-19T13:15:45.120Z,7.28
2018-03-19T13:18:12.623Z,6.98
2018-03-19T13:20:40.095Z,7.35
2018-03-19T13:23:07.576Z,8.39
2018-03-19T13:25:35.035Z,9.67
2018-03-19T13:28:02.525Z,10.50
2018-03-19T13:30:29.984Z,10.86
2018-03-19T13:32:57.476Z,10.99
2018-03-19T13:35:24.943Z,10.39
2018-03-19T13:37:52.427Z,9.85
2018-03-19T13:40:19.887Z,11.50
2018-03-19T13:42:47.375Z,12.36
2018-03-19T13:45:14.868Z,12.94
2018-03-19T13:47:42.380Z,11.45
2018-03-19T13:50:09.840Z,12.43
2018-03-19T13:52:37.325Z,13.64
2018-03-19T13:55:04.803Z,13.08
2018-03-19T13:57:32.269Z,13.60
2018-03-19T13:59:59.762Z,14.33
2018-03-19T14:02:27.231Z,15.24
2018-03-19T14:04:54.739Z,14.42
2018-03-19T14:07:22.198Z,13.94
2018-03-19T14:09:49.674Z,13.81
2018-03-19T14:12:17.147Z,14.53
2018-03-19T14:14:44.642Z,14.63
2018-03-19T14:17:12.108Z,15.19
2018-03-19T14:19:39.606Z,13.48
2018-03-19T14:22:07.062Z,13.69
2018-03-19T14:24:34.543Z,14.18
2018-03-19T14:27:01.999Z,13.61
2018-03-19T14:29:29.479Z,14.35
2018-03-19T14:31:57.183Z,14.45
2018-03-19T14:34:24.760Z,15.87
2018-03-19T14:36:52.223Z,13.78
2018-03-19T14:39:19.676Z,13.82
2018-03-19T14:41:47.175Z,13.71
2018-03-19T14:44:14.650Z,14.23
2018-03-19T14:46:42.133Z,15.44
2018-03-19T14:49:09.594Z,15.51
2018-03-19T14:51:37.076Z,15.04
2018-03-19T14:54:04.547Z,15.41
2018-03-19T14:56:32.031Z,15.80
2018-03-19T14:58:59.508Z,15.53
2018-03-19T15:01:26.995Z,14.98
2018-03-19T15:03:54.451Z,13.80
2018-03-19T15:06:21.932Z,14.65
2018-03-19T15:08:49.391Z,15.60
2018-03-19T15:11:16.895Z,15.24
2018-03-19T15:13:44.360Z,13.56
2018-03-19T15:16:11.815Z,13.52
2018-03-19T15:18:39.331Z,13.16
2018-03-19T15:21:06.789Z,14.61
2018-03-19T15:23:34.276Z,15.55
2018-03-19T15:26:01.735Z,15.69
2018-03-19T15:28:29.227Z,14.63
2018-03-19T15:30:56.686Z,13.66
2018-03-19T15:33:24.179Z,11.70
2018-03-19T15:35:51.636Z,9.46
2018-03-19T15:38:19.124Z,8.45
2018-03-19T15:40:46.599Z,9.13
2018-03-19T15:43:14.080Z,9.04
2018-03-19T15:45:41.567Z,7.56
2018-03-19T15:48:09.051Z,7.28
2018-03-19T15:50:36.611Z,7.80
2018-03-19T15:53:04.100Z,8.30
2018-03-19T15:55:31.546Z,9.08
2018-03-19T15:57:58.997Z,8.56
2018-03-19T16:00:26.488Z,9.78
2018-03-19T16:02:53.938Z,9.50
2018-03-19T16:05:21.421Z,10.04
2018-03-19T16:07:48.907Z,8.46
2018-03-19T16:10:16.375Z,7.77
2018-03-19T16:12:43.827Z,8.81
2018-03-19T16:15:11.348Z,8.79
2018-03-19T16:17:38.799Z,9.17
2018-03-19T16:20:06.294Z,8.87
2018-03-19T16:22:33.779Z,8.78
2018-03-19T16:25:01.252Z,7.96
2018-03-19T16:27:28.705Z,7.93
2018-03-19T16:29:56.187Z,8.21
2018-03-19T16:32:23.636Z,8.31
2018-03-19T16:34:51.121Z,8.43
2018-03-19T16:37:18.582Z,7.73
2018-03-19T16:39:46.067Z,8.48
2018-03-19T16:42:13.547Z,8.52
2018-03-19T16:44:41.008Z,7.95
2018-03-19T16:47:08.488Z,8.01
2018-03-19T16:49:35.946Z,7.56
2018-03-19T16:52:03.447Z,7.52
2018-03-19T16:54:30.898Z,6.87
2018-03-19T16:56:58.389Z,6.29
2018-03-19T16:59:25.856Z,5.58
2018-03-19T17:01:53.344Z,5.45
2018-03-19T17:04:20.809Z,5.33
2018-03-19T17:06:48.314Z,5.17
2018-03-19T17:09:15.773Z,5.10
2018-03-19T17:11:43.292Z,4.89
2018-03-19T17:14:10.787Z,4.91
2018-03-19T17:16:38.244Z,4.83
2018-03-19T17:19:05.727Z,4.65
2018-03-19T17:21:33.179Z,4.58
2018-03-19T17:24:00.668Z,4.40
2018-03-19T17:26:28.123Z,4.32
2018-03-19T17:28:55.596Z,4.24
2018-03-19T17:31:23.049Z,4.11
2018-03-19T17:33:50.540Z,4.07
2018-03-19T17:36:18.029Z,4.03
2018-03-19T17:38:45.517Z,4.00
2018-03-19T17:41:12.989Z,3.96
2018-03-19T17:43:40.475Z,3.74
2018-03-19T17:46:07.940Z,3.68
2018-03-19T17:48:35.436Z,3.57
2018-03-19T17:51:03.406Z,3.38
2018-03-19T17:53:30.911Z,3.31
2018-03-19T17:55:58.366Z,3.24
2018-03-19T17:58:25.823Z,3.26
2018-03-19T18:00:53.320Z,3.20
2018-03-19T18:03:20.795Z,3.08
2018-03-19T18:05:48.311Z,3.06
2018-03-19T18:08:15.782Z,3.00
2018-03-19T18:10:43.591Z,2.85
2018-03-19T18:13:11.179Z,2.84
2018-03-19T18:15:38.821Z,2.77
2018-03-19T18:18:06.367Z,2.76
2018-03-19T18:20:33.917Z,2.66
2018-03-19T18:23:01.422Z,2.59
2018-03-19T18:25:28.966Z,2.50
2018-03-19T18:27:56.459Z,2.50
2018-03-19T18:30:23.988Z,2.35
2018-03-19T18:32:51.518Z,2.25
2018-03-19T18:35:19.030Z,2.27
2018-03-19T18:37:46.508Z,2.21
2018-03-19T18:40:13.977Z,2.18
2018-03-19T18:42:41.456Z,2.16
2018-03-19T18:45:08.911Z,2.15
2018-03-19T18:47:36.395Z,2.12
2018-03-19T18:50:03.860Z,2.05
2018-03-19T18:52:31.369Z,2.02
2018-03-19T18:54:58.828Z,1.97
2018-03-19T18:57:26.318Z,1.90
2018-03-19T18:59:53.788Z,1.85
2018-03-19T19:02:21.287Z,1.87
2018-03-19T19:04:48.734Z,1.81
2018-03-19T19:07:16.207Z,1.69
2018-03-19T19:09:43.701Z,1.70
2018-03-19T19:12:11.155Z,1.63
2018-03-19T19:14:38.631Z,1.63
2018-03-19T19:17:06.088Z,1.62
2018-03-19T19:19:33.575Z,1.66
2018-03-19T19:22:01.038Z,1.54
2018-03-19T19:24:28.528Z,1.53
2018-03-19T19:26:56.036Z,1.62
2018-03-19T19:29:23.614Z,1.56
2018-03-19T19:31:51.011Z,1.46
2018-03-19T19:34:18.510Z,1.40
2018-03-19T19:36:45.960Z,1.35
2018-03-19T19:39:13.431Z,1.33
2018-03-19T19:41:40.922Z,1.23
2018-03-19T19:44:08.379Z,1.23
2018-03-19T19:46:35.864Z,1.19
2018-03-19T19:49:03.335Z,1.18
2018-03-19T19:51:30.828Z,1.10
2018-03-19T19:53:58.287Z,1.12
2018-03-19T19:56:25.775Z,1.02
2018-03-19T19:58:53.248Z,0.98
2018-03-19T20:01:20.748Z,0.96
2018-03-19T20:03:48.195Z,0.86
2018-03-19T20:06:15.719Z,0.85
2018-03-19T20:08:43.191Z,0.81
2018-03-19T20:11:10.684Z,0.82
2018-03-19T20:13:38.151Z,0.80
2018-03-19T20:16:05.667Z,0.83
2018-03-19T20:18:33.159Z,0.83
2018-03-19T20:21:00.655Z,0.78
2018-03-19T20:23:28.109Z,0.68
2018-03-19T20:25:55.617Z,0.75
2018-03-19T20:28:23.075Z,0.75
2018-03-19T20:30:50.564Z,0.77
2018-03-19T20:33:18.042Z,0.73
2018-03-19T20:35:45.504Z,0.64
2018-03-19T20:38:13.010Z,0.64
2018-03-19T20:40:40.472Z,0.55
2018-03-19T20:43:07.957Z,0.54
2018-03-19T20:45:35.416Z,0.52
2018-03-19T20:48:02.904Z,0.55
2018-03-19T20:50:30.365Z,0.47
2018-03-19T20:52:57.962Z,0.46
2018-03-19T20:55:26.315Z,0.45
2018-03-19T20:57:53.801Z,0.40
2018-03-19T21:00:21.258Z,0.35
2018-03-19T21:02:48.847Z,0.25
2018-03-19T21:05:16.315Z,0.27
2018-03-19T21:07:43.808Z,0.23
2018-03-19T21:10:11.264Z,0.19
2018-03-19T21:12:38.777Z,0.25
2018-03-19T21:15:06.265Z,0.18
2018-03-19T21:17:33.967Z,0.17
2018-03-19T21:20:01.477Z,0.14
2018-03-19T21:22:28.943Z,0.12
2018-03-19T21:24:56.432Z,0.11
2018-03-19T21:27:23.902Z,0.08
2018-03-19T21:29:51.402Z,0.11
2018-03-19T21:32:18.875Z,0.12
2018-03-19T21:34:46.360Z,0.12
2018-03-19T21:37:13.843Z,0.06
2018-03-19T21:39:41.359Z,0.00
2018-03-19T21:42:08.835Z,-0.04
2018-03-19T21:44:36.331Z,-0.02
2018-03-19T21:47:03.800Z,-0.17
2018-03-19T21:49:31.313Z,-0.11
2018-03-19T21:51:58.799Z,-0.17
2018-03-19T21:54:26.264Z,-0.18
2018-03-19T21:56:53.763Z,-0.23
2018-03-19T21:59:21.504Z,-0.22
2018-03-19T22:01:49.526Z,-0.30
2018-03-19T22:04:16.999Z,-0.32
2018-03-19T22:06:44.488Z,-0.26
2018-03-19T22:09:11.956Z,-0.30
2018-03-19T22:11:39.507Z,-0.35
2018-03-19T22:14:06.988Z,-0.39
2018-03-19T22:16:34.477Z,-0.48
2018-03-19T22:19:02.180Z,-0.51
2018-03-19T22:21:29.685Z,-0.40
2018-03-19T22:23:57.163Z,-0.35
2018-03-19T22:26:24.675Z,-0.39
2018-03-19T22:28:52.179Z,-0.50
2018-03-19T22:31:19.644Z,-0.70
2018-03-19T22:33:47.138Z,-0.69
2018-03-19T22:36:14.600Z,-0.80
2018-03-19T22:38:42.096Z,-0.70
2018-03-19T22:41:09.564Z,-0.64
2018-03-19T22:43:37.058Z,-0.72
2018-03-19T22:46:04.535Z,-0.67
2018-03-19T22:48:32.036Z,-0.90
2018-03-19T22:50:59.503Z,-1.11
2018-03-19T22:53:26.999Z,-1.11
2018-03-19T22:55:54.465Z,-0.96
2018-03-19T22:58:21.956Z,-0.96
2018-03-19T23:00:49.418Z,-1.15
2018-03-19T23:03:16.935Z,-1.37
2018-03-19T23:05:44.399Z,-1.33
2018-03-19T23:08:11.861Z,-1.30
2018-03-19T23:10:39.353Z,-1.25
2018-03-19T23:13:06.810Z,-1.32
2018-03-19T23:15:34.303Z,-1.20
2018-03-19T23:18:01.760Z,-1.14
2018-03-19T23:20:29.353Z,-1.21
2018-03-19T23:22:56.818Z,-1.51
2018-03-19T23:25:24.308Z,-1.69
2018-03-19T23:27:51.788Z,-1.72
2018-03-19T23:30:19.327Z,-1.65
2018-03-19T23:32:46.792Z,-1.83
2018-03-19T23:35:14.288Z,-1.91
2018-03-19T23:37:41.768Z,-1.97
2018-03-19T23:40:09.281Z,-1.73
2018-03-19T23:42:36.759Z,-1.59
2018-03-19T23:45:04.280Z,-1.56
2018-03-19T23:47:31.763Z,-1.74
2018-03-19T23:49:59.223Z,-1.62
2018-03-19T23:52:26.723Z,-1.56
2018-03-19T23:54:54.198Z,-1.60
2018-03-19T23:57:21.692Z,-1.45
2018-03-19T23:59:49.149Z,-1.31
